Time;durP1;ratioP1;P1;durP2;ratioP2;P2;SDS_P1;SDS_P2;PMS_P1;PMS_P2;Temp;Humidity;BMP_temperature;BMP_pressure;BME280_temperature;BME280_humidity;BME280_pressure;Samples;Min_cycle;Max_cycle;Signal;HPM_P1;HPM_P2
2021/05/03 00:00:22;;;;;;;2.67;2.00;;;9.80;73.70;;;;;;6148914;23;20427;-85
2021/05/03 00:03:00;;;;;;;2.27;2.07;;;9.70;74.10;;;;;;6112777;23;20444;-85
2021/05/03 00:05:56;;;;;;;3.50;2.50;;;9.70;74.40;;;;;;6136567;23;20412;-85
2021/05/03 00:08:36;;;;;;;3.33;2.40;;;9.60;74.80;;;;;;6110872;23;20503;-83
2021/05/03 00:11:11;;;;;;;2.00;1.90;;;9.60;75.00;;;;;;6138430;23;20427;-88
2021/05/03 00:13:55;;;;;;;4.57;2.73;;;9.60;75.50;;;;;;6137703;23;20396;-85
2021/05/03 00:16:25;;;;;;;5.00;2.50;;;9.50;76.00;;;;;;6139060;23;20439;-85
2021/05/03 00:19:07;;;;;;;4.43;3.03;;;9.60;76.90;;;;;;6138694;23;20435;-85
2021/05/03 00:21:37;;;;;;;2.60;2.30;;;9.60;77.20;;;;;;6212952;23;20444;-86
2021/05/03 00:24:09;;;;;;;3.10;2.80;;;9.50;77.30;;;;;;6240246;23;20701;-85
2021/05/03 00:26:39;;;;;;;2.97;2.67;;;9.50;77.70;;;;;;6240964;23;20484;-87
2021/05/03 00:29:35;;;;;;;4.03;2.53;;;9.40;78.00;;;;;;6240187;23;20409;-88
2021/05/03 00:32:47;;;;;;;4.13;2.50;;;9.40;78.90;;;;;;6240554;22;20389;-87
2021/05/03 00:35:37;;;;;;;3.00;2.70;;;9.30;79.40;;;;;;6224607;23;20437;-85
2021/05/03 00:38:16;;;;;;;3.57;3.20;;;9.30;79.80;;;;;;6228797;23;20432;-85
2021/05/03 00:41:01;;;;;;;7.20;2.73;;;9.30;80.20;;;;;;6230893;23;20443;-88
2021/05/03 00:44:01;;;;;;;4.90;2.80;;;9.20;80.40;;;;;;6249900;23;20417;-81
2021/05/03 00:50:14;;;;;;;5.03;2.67;;;9.10;81.00;;;;;;6221597;23;20492;-85
2021/05/03 00:53:08;;;;;;;4.67;3.17;;;9.10;81.30;;;;;;6241831;23;20425;-88
2021/05/03 00:56:14;;;;;;;4.73;2.40;;;9.10;81.30;;;;;;6207455;23;20448;-84
2021/05/03 00:59:20;;;;;;;5.80;2.80;;;9.10;81.40;;;;;;6218692;23;20441;-83
2021/05/03 01:02:30;;;;;;;3.60;2.93;;;9.20;81.50;;;;;;6193042;23;20382;-87
2021/05/03 01:05:29;;;;;;;3.10;2.87;;;9.10;81.50;;;;;;6226293;23;20451;-85
2021/05/03 01:08:36;;;;;;;5.20;3.33;;;9.10;81.40;;;;;;6227625;23;20452;-86
2021/05/03 01:11:16;;;;;;;3.70;3.10;;;9.10;81.50;;;;;;6251625;23;20411;-86
2021/05/03 01:13:54;;;;;;;3.43;3.13;;;9.10;81.60;;;;;;6226003;23;20408;-84
2021/05/03 01:16:35;;;;;;;3.53;2.90;;;9.00;81.90;;;;;;6227711;23;20389;-85
2021/05/03 01:19:38;;;;;;;3.60;3.30;;;9.00;82.00;;;;;;6219849;23;20883;-87
2021/05/03 01:22:23;;;;;;;6.33;3.50;;;9.00;82.20;;;;;;6248159;23;20467;-88
2021/05/03 01:25:20;;;;;;;3.30;3.10;;;9.00;82.40;;;;;;6247861;23;20498;-86
2021/05/03 01:28:30;;;;;;;3.70;3.03;;;8.90;82.40;;;;;;6225352;23;20411;-84
2021/05/03 01:31:13;;;;;;;3.93;3.27;;;8.90;82.60;;;;;;6250452;23;20860;-87
2021/05/03 01:33:58;;;;;;;3.37;3.07;;;9.00;82.80;;;;;;6252164;23;20435;-85
2021/05/03 01:36:40;;;;;;;3.33;2.70;;;9.00;82.80;;;;;;6200758;23;20419;-88
2021/05/03 01:39:18;;;;;;;3.60;2.60;;;8.90;83.00;;;;;;6251486;23;20428;-83
2021/05/03 01:46:16;;;;;;;3.80;2.67;;;9.00;83.20;;;;;;6189235;23;20381;-86
2021/05/03 01:49:15;;;;;;;3.57;3.10;;;9.00;83.10;;;;;;6163845;23;20506;-86
2021/05/03 01:54:54;;;;;;;4.60;3.10;;;9.00;83.30;;;;;;6183284;23;20459;-87
2021/05/03 01:57:23;;;;;;;5.17;3.00;;;9.00;83.00;;;;;;6187021;23;20433;-85
2021/05/03 02:00:33;;;;;;;6.43;3.57;;;8.90;83.20;;;;;;6158070;23;20478;-85
2021/05/03 02:04:03;;;;;;;5.27;3.43;;;8.80;83.50;;;;;;6161314;23;20412;-87
2021/05/03 02:06:36;;;;;;;3.80;3.50;;;9.10;82.90;;;;;;6178023;23;20496;-86
2021/05/03 02:09:35;;;;;;;4.60;4.00;;;9.20;81.70;;;;;;6182387;23;20428;-85
2021/05/03 02:16:00;;;;;;;4.03;3.63;;;8.90;83.10;;;;;;6209821;23;20428;-86
2021/05/03 02:18:50;;;;;;;6.10;3.40;;;8.70;83.90;;;;;;6247083;23;20435;-87
2021/05/03 02:21:29;;;;;;;6.17;3.80;;;8.50;84.90;;;;;;6222144;23;20422;-85
2021/05/03 02:24:03;;;;;;;5.07;3.90;;;8.30;86.80;;;;;;6221584;23;20415;-85
2021/05/03 02:26:41;;;;;;;5.50;3.30;;;8.10;87.90;;;;;;6223288;23;20451;-86
2021/05/03 02:29:08;;;;;;;5.60;3.63;;;8.10;88.50;;;;;;6249075;23;20472;-85
2021/05/03 02:32:10;;;;;;;5.10;3.97;;;8.20;88.80;;;;;;6252508;23;20480;-86
2021/05/03 02:34:48;;;;;;;4.43;4.03;;;8.20;88.90;;;;;;6251159;23;20530;-86
2021/05/03 02:37:21;;;;;;;5.80;3.70;;;8.20;88.90;;;;;;6229443;23;20408;-85
2021/05/03 02:40:09;;;;;;;6.33;4.60;;;8.20;88.80;;;;;;6260996;23;20427;-87
2021/05/03 02:42:51;;;;;;;4.00;3.50;;;8.20;88.90;;;;;;6260779;23;20400;-86
2021/05/03 02:45:27;;;;;;;4.90;4.27;;;8.20;89.10;;;;;;6236557;23;20430;-85
2021/05/03 02:48:01;;;;;;;6.50;4.00;;;8.20;89.30;;;;;;6240912;22;20425;-86
2021/05/03 02:50:31;;;;;;;4.37;3.83;;;8.10;89.30;;;;;;6269717;22;20407;-86
2021/05/03 02:56:55;;;;;;;6.27;4.20;;;8.10;89.80;;;;;;6269365;22;20426;-87
2021/05/03 03:00:03;;;;;;;4.20;3.60;;;8.00;90.00;;;;;;6268096;22;20438;-86
2021/05/03 03:03:15;;;;;;;6.00;3.60;;;8.10;90.00;;;;;;6244764;23;20388;-84
2021/05/03 03:06:10;;;;;;;8.10;3.97;;;8.10;89.50;;;;;;6233034;23;20407;-86
2021/05/03 03:08:55;;;;;;;4.43;4.00;;;8.00;89.60;;;;;;6253352;23;20503;-83
2021/05/03 03:11:47;;;;;;;4.40;3.90;;;8.10;89.90;;;;;;6252813;23;21133;-84
2021/05/03 03:14:41;;;;;;;4.70;3.73;;;8.10;89.80;;;;;;6242084;23;20454;-87
2021/05/03 03:17:55;;;;;;;4.67;4.13;;;8.10;89.70;;;;;;6241297;23;20408;-88
2021/05/03 03:21:07;;;;;;;;;;;;;;;;;;;;;
2021/05/03 03:23:53;;;;;;;6.53;4.50;;;8.40;87.40;;;;;;6269024;23;20411;-86
2021/05/03 03:26:44;;;;;;;4.93;4.30;;;8.50;87.60;;;;;;6247904;22;20400;-88
2021/05/03 03:29:31;;;;;;;4.87;4.40;;;8.30;87.20;;;;;;6268497;23;20475;-88
2021/05/03 03:33:06;;;;;;;;;;;;;;;;;;;;;
2021/05/03 03:36:31;;;;;;;4.63;4.23;;;8.40;87.40;;;;;;6257890;23;20448;-87
2021/05/03 03:46:34;;;;;;;5.17;4.73;;;8.30;86.40;;;;;;6271130;22;20403;-87
2021/05/03 03:50:02;;;;;;;5.00;4.50;;;8.00;88.00;;;;;;6271640;22;20431;-86
2021/05/03 03:53:06;;;;;;;8.10;6.00;;;8.20;88.40;;;;;;6257493;22;20388;-84
2021/05/03 03:55:47;;;;;;;5.53;4.90;;;8.20;89.00;;;;;;6233066;23;20444;-81
2021/05/03 03:58:52;;;;;;;5.50;4.90;;;8.10;88.40;;;;;;6259081;23;20434;-86
2021/05/03 04:02:07;;;;;;;8.60;6.50;;;8.10;88.60;;;;;;6228357;23;20891;-84
2021/05/03 04:05:06;;;;;;;6.87;5.73;;;7.90;89.60;;;;;;6224833;23;20412;-83
2021/05/03 04:09:07;;;;;;;6.03;5.43;;;7.90;90.10;;;;;;6155629;23;20395;-86
2021/05/03 04:24:52;;;;;;;9.10;6.30;;;7.50;93.10;;;;;;6154421;23;20423;-84
2021/05/03 04:27:50;;;;;;;7.50;5.67;;;7.50;93.80;;;;;;6126927;23;20714;-88
2021/05/03 04:30:40;;;;;;;11.07;6.50;;;7.60;94.50;;;;;;6153947;23;20415;-84
2021/05/03 04:33:17;;;;;;;9.17;6.53;;;7.50;94.50;;;;;;6154052;23;20423;-83
2021/05/03 04:39:34;;;;;;;6.80;6.10;;;7.40;94.00;;;;;;6154491;23;20442;-87
2021/05/03 04:42:33;;;;;;;;;;;;;;;;;;;;;
2021/05/03 04:45:44;;;;;;;5.97;5.40;;;7.30;93.90;;;;;;6212038;23;20416;-84
2021/05/03 04:48:33;;;;;;;7.33;5.40;;;7.30;93.80;;;;;;6222530;23;20435;-86
2021/05/03 04:51:40;;;;;;;6.17;5.57;;;7.40;93.50;;;;;;6222559;23;20439;-86
2021/05/03 04:55:04;;;;;;;15.83;6.30;;;7.60;92.70;;;;;;6247056;23;20420;-85
2021/05/03 04:58:06;;;;;;;6.20;5.60;;;7.50;92.40;;;;;;6251787;23;20442;-87
2021/05/03 05:03:50;;;;;;;7.77;6.20;;;7.20;92.80;;;;;;6219609;23;20405;-85
2021/05/03 05:06:59;;;;;;;7.23;6.40;;;7.00;93.10;;;;;;6225962;23;20966;-85
2021/05/03 05:13:47;;;;;;;8.60;6.20;;;7.00;93.50;;;;;;6226077;23;21054;-85
2021/05/03 05:17:26;;;;;;;;;;;;;;;;;;;;;
2021/05/03 05:21:07;;;;;;;7.73;5.57;;;7.70;92.10;;;;;;6250523;23;20451;-86
2021/05/03 05:35:04;;;;;;;;;;;;;;;;;;;;;
2021/05/03 05:37:46;;;;;;;8.60;5.93;;;8.00;91.00;;;;;;6210938;23;20400;-87
2021/05/03 05:41:13;;;;;;;7.73;6.17;;;8.20;90.70;;;;;;6235586;22;20443;-87
2021/05/03 05:44:35;;;;;;;7.97;6.00;;;8.10;91.10;;;;;;6250975;22;20439;-84
2021/05/03 05:47:36;;;;;;;6.67;6.03;;;7.90;91.30;;;;;;6236903;23;20427;-87
2021/05/03 05:50:34;;;;;;;8.00;6.70;;;8.00;91.60;;;;;;6251454;23;20470;-84
2021/05/03 05:53:19;;;;;;;9.33;5.90;;;8.00;91.30;;;;;;6226474;23;20442;-85
2021/05/03 05:56:05;;;;;;;7.20;6.50;;;8.10;91.30;;;;;;6227600;23;20977;-87
2021/05/03 05:58:57;;;;;;;7.97;6.27;;;8.10;91.40;;;;;;6250589;23;20462;-88
2021/05/03 06:01:49;;;;;;;8.67;6.63;;;8.30;91.00;;;;;;6252401;23;20405;-87
2021/05/03 06:04:34;;;;;;;6.87;6.17;;;8.40;91.50;;;;;;6225956;23;20416;-86
2021/05/03 06:07:09;;;;;;;6.90;6.13;;;8.30;91.70;;;;;;6250714;23;20457;-85
2021/05/03 06:10:07;;;;;;;8.10;7.40;;;8.30;91.80;;;;;;6251981;23;20432;-85
2021/05/03 06:13:02;;;;;;;9.50;7.60;;;8.60;92.30;;;;;;6231275;23;20416;-83
2021/05/03 06:15:57;;;;;;;7.90;7.10;;;8.60;92.40;;;;;;6203996;23;20482;-85
2021/05/03 06:18:54;;;;;;;;;;;;;;;;;;;;;
2021/05/03 06:21:58;;;;;;;7.47;6.73;;;8.70;92.30;;;;;;6251858;23;20420;-85
2021/05/03 06:24:41;;;;;;;10.17;7.67;;;8.60;92.70;;;;;;6248026;23;20443;-85
2021/05/03 06:30:45;;;;;;;11.20;8.53;;;8.50;92.60;;;;;;6242255;23;20458;-85
2021/05/03 06:33:22;;;;;;;8.77;7.90;;;8.50;92.80;;;;;;6221646;23;20412;-85
2021/05/03 06:35:53;;;;;;;8.40;7.70;;;8.70;93.30;;;;;;6240435;23;20517;-90
2021/05/03 06:38:29;;;;;;;9.87;8.40;;;8.90;93.00;;;;;;6225209;23;20981;-84
2021/05/03 06:41:17;;;;;;;14.20;7.70;;;8.90;93.00;;;;;;6224181;23;20412;-85
2021/05/03 06:44:00;;;;;;;9.43;8.50;;;8.70;93.30;;;;;;6249028;23;20422;-84
2021/05/03 06:46:49;;;;;;;;;;;;;;;;;;;;;
2021/05/03 06:49:56;;;;;;;9.20;8.10;;;9.10;93.10;;;;;;6246455;23;21026;-87
2021/05/03 06:53:12;;;;;;;8.97;8.07;;;9.20;92.60;;;;;;6237101;23;20442;-86
2021/05/03 06:56:36;;;;;;;9.37;7.60;;;9.30;92.70;;;;;;6101836;23;20467;-86
2021/05/03 07:03:53;;;;;;;9.23;8.40;;;9.20;92.50;;;;;;6036290;23;20432;-84
2021/05/03 07:06:55;;;;;;;11.00;8.27;;;9.40;92.50;;;;;;6023017;23;20927;-86
2021/05/03 07:10:00;;;;;;;8.57;7.77;;;9.70;91.80;;;;;;6036800;23;20521;-86
2021/05/03 07:13:27;;;;;;;;;;;;;;;;;;;;;
2021/05/03 07:17:20;;;;;;;12.73;7.67;;;10.30;90.10;;;;;;5906427;24;20451;-86
2021/05/03 07:20:00;;;;;;;7.00;6.40;;;10.60;88.70;;;;;;5852806;24;20485;-86
2021/05/03 07:30:02;;;;;;;7.93;7.20;;;12.80;76.40;;;;;;5854489;24;20427;-86
2021/05/03 07:33:41;;;;;;;6.90;5.70;;;12.70;74.20;;;;;;5938541;23;20450;-89
2021/05/03 07:43:26;;;;;;;7.43;6.70;;;20.60;48.40;;;;;;6271410;22;20400;-86
2021/05/03 07:46:42;;;;;;;7.63;7.03;;;20.60;46.00;;;;;;6268830;22;20651;-85
2021/05/03 07:50:41;;;;;;;7.30;6.40;;;20.30;46.00;;;;;;6236477;23;20742;-86
2021/05/03 07:53:41;;;;;;;6.43;5.73;;;21.80;44.70;;;;;;6110812;23;20435;-85
2021/05/03 07:57:06;;;;;;;;;;;;;;;;;;;;;
2021/05/03 08:00:25;;;;;;;6.83;6.03;;;23.90;38.10;;;;;;6044075;23;20478;-88
2021/05/03 08:11:02;;;;;;;5.07;4.57;;;23.70;35.00;;;;;;5996287;24;20423;-86
2021/05/03 08:14:00;;;;;;;6.80;4.87;;;26.00;31.60;;;;;;5985086;23;20434;-86
2021/05/03 08:17:08;;;;;;;5.10;4.70;;;25.30;32.00;;;;;;5986706;23;20417;-86
2021/05/03 08:19:56;;;;;;;5.07;4.67;;;25.20;31.70;;;;;;5964781;24;20436;-87
2021/05/03 08:23:22;;;;;;;4.20;3.77;;;24.60;32.10;;;;;;5976388;24;20419;-87
2021/05/03 08:29:53;;;;;;;3.77;3.47;;;25.20;28.30;;;;;;5970882;23;20492;-85
2021/05/03 08:32:38;;;;;;;5.80;3.50;;;22.40;29.40;;;;;;6130207;23;20423;-85
2021/05/03 08:39:03;;;;;;;3.80;3.23;;;24.40;29.20;;;;;;6248155;23;20740;-87
2021/05/03 08:41:40;;;;;;;4.73;3.37;;;23.00;29.30;;;;;;6233109;23;20459;-87
2021/05/03 08:45:02;;;;;;;4.63;3.40;;;22.10;30.20;;;;;;6253349;22;20404;-86
2021/05/03 08:55:18;;;;;;;;;;;;;;;;;;;;;
2021/05/03 08:58:14;;;;;;;3.97;3.57;;;25.30;28.20;;;;;;6249820;23;20739;-85
2021/05/03 09:01:40;;;;;;;3.93;3.50;;;23.60;27.80;;;;;;6249897;23;20418;-87
2021/05/03 09:04:46;;;;;;;3.97;3.67;;;22.10;29.60;;;;;;6229943;23;20851;-85
2021/05/03 09:07:33;;;;;;;3.17;2.87;;;23.30;29.70;;;;;;6249792;23;20385;-87
2021/05/03 09:10:18;;;;;;;9.30;4.30;;;23.80;28.00;;;;;;6221727;23;20450;-87
2021/05/03 09:13:09;;;;;;;10.47;4.67;;;23.10;27.90;;;;;;6249163;23;20412;-87
2021/05/03 09:16:23;;;;;;;5.33;4.93;;;22.20;28.50;;;;;;6222437;23;20518;-86
2021/05/03 09:19:50;;;;;;;5.03;4.00;;;21.90;28.40;;;;;;6216558;23;20435;-85
2021/05/03 09:29:44;;;;;;;5.20;4.10;;;21.50;29.50;;;;;;6260508;23;20861;-84
2021/05/03 09:32:42;;;;;;;4.73;4.33;;;20.70;30.20;;;;;;6225335;23;20412;-86
2021/05/03 09:35:19;;;;;;;4.90;4.33;;;20.40;30.90;;;;;;6248674;23;21183;-86
2021/05/03 09:37:57;;;;;;;4.30;3.90;;;20.30;31.10;;;;;;6222101;23;20410;-87
2021/05/03 09:41:16;;;;;;;;;;;;;;;;;;;;;
2021/05/03 09:44:57;;;;;;;4.90;4.30;;;19.80;31.50;;;;;;6227711;23;20404;-87
2021/05/03 09:48:01;;;;;;;5.43;4.93;;;20.10;32.00;;;;;;6204590;23;20514;-87
2021/05/03 09:51:00;;;;;;;5.87;4.63;;;19.40;32.40;;;;;;6247274;23;20406;-87
2021/05/03 09:54:42;;;;;;;5.00;4.60;;;19.60;33.40;;;;;;6248149;23;20442;-87
2021/05/03 09:58:42;;;;;;;5.37;4.87;;;21.80;31.30;;;;;;6243230;23;20391;-87
2021/05/03 10:02:14;;;;;;;5.70;5.23;;;22.00;30.20;;;;;;6235205;23;20414;-88
2021/05/03 10:05:14;;;;;;;4.20;3.80;;;21.10;30.50;;;;;;6216228;22;20439;-87
2021/05/03 10:11:39;;;;;;;5.20;4.80;;;20.90;30.20;;;;;;6229963;23;20427;-87
2021/05/03 10:14:44;;;;;;;6.40;5.00;;;19.40;32.20;;;;;;6226144;23;20418;-86
2021/05/03 10:17:55;;;;;;;5.13;4.27;;;18.20;33.00;;;;;;6156373;23;20465;-85
2021/05/03 10:20:52;;;;;;;6.17;4.50;;;18.60;33.50;;;;;;6129262;23;20391;-85
2021/05/03 10:23:35;;;;;;;5.60;4.57;;;18.50;32.80;;;;;;6131289;23;20415;-86
2021/05/03 10:26:54;;;;;;;5.37;4.87;;;17.70;33.60;;;;;;6153547;23;20434;-86
2021/05/03 10:30:08;;;;;;;6.47;4.77;;;17.90;34.40;;;;;;6133081;23;20442;-87
2021/05/03 10:33:15;;;;;;;4.90;4.50;;;18.70;33.00;;;;;;6165370;23;20483;-87
2021/05/03 10:35:51;;;;;;;5.07;4.60;;;18.70;31.80;;;;;;6137664;23;20466;-85
2021/05/03 10:38:40;;;;;;;5.30;4.60;;;18.10;32.90;;;;;;6141555;23;20431;-86
2021/05/03 10:41:50;;;;;;;5.10;4.70;;;18.30;33.60;;;;;;6162166;23;20448;-89
2021/05/03 10:45:51;;;;;;;4.87;4.37;;;17.90;33.80;;;;;;6151410;23;20482;-86
2021/05/03 10:48:31;;;;;;;4.83;4.43;;;17.80;34.50;;;;;;6171584;23;20414;-87
2021/05/03 10:51:59;;;;;;;5.13;4.73;;;17.40;35.10;;;;;;6149189;23;20395;-89
2021/05/03 10:55:05;;;;;;;5.20;4.70;;;18.20;34.10;;;;;;6078651;23;20419;-90
2021/05/03 10:58:07;;;;;;;6.13;4.60;;;18.40;34.10;;;;;;6117313;23;20400;-90
2021/05/03 11:00:39;;;;;;;5.30;4.80;;;18.20;33.30;;;;;;6115532;23;20404;-86
2021/05/03 11:03:19;;;;;;;6.17;4.80;;;17.50;33.80;;;;;;6208109;23;20430;-85
2021/05/03 11:08:55;;;;;;;5.40;3.77;;;17.30;34.70;;;;;;6253540;23;20436;-88
2021/05/03 11:11:57;;;;;;;4.87;4.00;;;17.40;34.20;;;;;;6226765;23;20420;-86
2021/05/03 11:15:10;;;;;;;4.53;4.13;;;17.50;33.70;;;;;;6156977;23;20383;-85
2021/05/03 11:18:54;;;;;;;4.60;4.20;;;17.90;33.00;;;;;;6119447;23;20422;-84
2021/05/03 11:22:17;;;;;;;4.13;3.80;;;18.80;32.00;;;;;;6068534;23;20428;-88
2021/05/03 11:25:09;;;;;;;4.17;3.87;;;18.60;32.40;;;;;;6109453;23;20402;-88
2021/05/03 11:28:20;;;;;;;8.53;4.30;;;19.50;30.80;;;;;;6149861;23;20917;-83
2021/05/03 11:31:47;;;;;;;4.10;3.80;;;18.90;30.90;;;;;;6033066;23;20728;-88
2021/05/03 11:35:18;;;;;;;4.40;4.00;;;19.00;31.50;;;;;;6014524;23;20390;-89
2021/05/03 11:48:46;;;;;;;4.20;3.90;;;18.30;30.60;;;;;;6010799;23;20428;-86
2021/05/03 11:51:32;;;;;;;4.10;3.63;;;17.60;31.60;;;;;;6032850;23;20420;-86
2021/05/03 12:02:17;;;;;;;5.60;5.10;;;16.60;38.50;;;;;;6102236;23;20415;-89
2021/05/03 12:06:17;;;;;;;;;;;;;;;;;;;;;
2021/05/03 12:09:14;;;;;;;5.10;4.70;;;17.20;37.90;;;;;;6186660;23;20409;-86
2021/05/03 12:12:45;;;;;;;4.23;3.90;;;17.70;35.80;;;;;;6185940;23;20884;-87
2021/05/03 12:16:17;;;;;;;4.70;4.30;;;18.20;34.30;;;;;;6019925;23;20450;-85
2021/05/03 12:18:52;;;;;;;4.47;3.83;;;18.60;33.00;;;;;;6036243;23;20985;-87
2021/05/03 12:21:37;;;;;;;3.87;3.57;;;18.60;32.00;;;;;;6074137;23;20420;-86
2021/05/03 12:24:40;;;;;;;3.60;3.40;;;18.70;32.30;;;;;;6105176;23;20509;-84
2021/05/03 12:27:30;;;;;;;3.60;3.30;;;19.40;30.90;;;;;;6098452;23;20420;-86
2021/05/03 12:30:07;;;;;;;4.30;4.00;;;19.70;29.90;;;;;;6079651;23;20491;-90
2021/05/03 12:33:18;;;;;;;4.53;4.23;;;19.50;29.70;;;;;;6107154;23;20400;-86
2021/05/03 12:36:00;;;;;;;3.93;3.63;;;19.80;29.90;;;;;;6071071;23;20855;-87
2021/05/03 12:39:27;;;;;;;4.70;4.27;;;19.30;30.70;;;;;;6070711;23;20446;-87
2021/05/03 12:42:43;;;;;;;4.60;4.17;;;19.00;31.00;;;;;;6075990;23;20424;-86
2021/05/03 12:45:51;;;;;;;4.20;3.90;;;18.40;32.40;;;;;;6090884;23;20411;-84
2021/05/03 12:48:52;;;;;;;4.50;4.03;;;17.80;33.30;;;;;;6071398;23;20955;-87
2021/05/03 12:51:50;;;;;;;4.27;3.87;;;17.60;34.40;;;;;;6181275;23;20398;-82
2021/05/03 12:54:53;;;;;;;3.70;3.40;;;17.60;33.90;;;;;;6224666;23;20431;-88
2021/05/03 13:04:56;;;;;;;3.40;3.07;;;18.20;34.10;;;;;;6208242;22;20730;-89
2021/05/03 13:29:58;;;;;;;3.60;3.30;;;17.60;34.30;;;;;;6245624;23;20507;-87
2021/05/03 13:32:54;;;;;;;4.80;4.10;;;17.80;34.30;;;;;;6124600;23;21043;-86
2021/05/03 13:36:08;;;;;;;4.63;3.70;;;17.70;34.50;;;;;;6118382;23;20523;-86
2021/05/03 13:39:05;;;;;;;4.30;3.90;;;17.30;35.20;;;;;;6138827;22;20988;-87
2021/05/03 13:42:31;;;;;;;3.73;3.43;;;17.00;35.90;;;;;;6186506;23;20493;-86
2021/05/03 13:45:18;;;;;;;4.00;3.70;;;17.30;35.80;;;;;;6160265;23;20437;-86
2021/05/03 13:51:10;;;;;;;6.27;5.77;;;17.40;36.50;;;;;;6214230;23;20527;-86
2021/05/03 13:54:29;;;;;;;;;;;;;;;;;;;;;
2021/05/03 13:57:11;;;;;;;5.67;3.20;;;17.20;37.40;;;;;;6214435;23;21137;-89
2021/05/03 14:00:47;;;;;;;7.20;3.53;;;17.50;36.70;;;;;;6211391;23;20464;-84
2021/05/03 14:03:26;;;;;;;3.80;3.50;;;17.40;36.60;;;;;;6121276;23;20414;-88
2021/05/03 14:06:50;;;;;;;;;;;;;;;;;;;;;
2021/05/03 14:09:36;;;;;;;3.60;3.40;;;17.00;37.20;;;;;;6214216;23;20432;-87
2021/05/03 14:12:25;;;;;;;5.40;3.93;;;16.90;37.20;;;;;;6205912;23;20393;-88
2021/05/03 14:15:05;;;;;;;4.50;4.07;;;17.10;37.50;;;;;;6187029;23;20404;-87
2021/05/03 14:21:30;;;;;;;3.63;3.40;;;17.10;36.90;;;;;;6133207;23;20413;-85
2021/05/03 14:24:21;;;;;;;5.60;3.60;;;17.10;37.10;;;;;;6150812;23;21213;-84
2021/05/03 14:27:14;;;;;;;3.70;3.40;;;17.10;36.80;;;;;;6184802;23;20847;-86
2021/05/03 14:29:55;;;;;;;4.63;3.07;;;17.10;36.40;;;;;;6210754;23;20452;-85
2021/05/03 14:36:13;;;;;;;4.03;2.97;;;17.40;35.30;;;;;;6092889;23;20440;-85
2021/05/03 14:42:28;;;;;;;3.13;2.80;;;17.40;35.20;;;;;;6117004;23;20465;-86
2021/05/03 14:45:07;;;;;;;2.87;2.67;;;17.60;34.50;;;;;;6099289;23;20439;-88
2021/05/03 14:48:21;;;;;;;2.90;2.70;;;17.40;34.70;;;;;;6101769;23;20471;-88
2021/05/03 14:54:39;;;;;;;15.53;3.70;;;17.30;35.40;;;;;;6005937;23;20502;-82
2021/05/03 14:57:33;;;;;;;6.87;3.40;;;16.90;36.10;;;;;;6121428;23;20400;-85
2021/05/03 15:00:33;;;;;;;2.97;2.77;;;17.10;36.30;;;;;;6180118;23;20452;-84
2021/05/03 15:03:25;;;;;;;;;;;;;;;;;;;;;
2021/05/03 15:06:01;;;;;;;4.10;2.73;;;17.00;36.70;;;;;;6181743;23;20432;-85
2021/05/03 15:08:40;;;;;;;4.33;3.50;;;17.00;36.80;;;;;;6214122;23;20443;-85
2021/05/03 15:11:48;;;;;;;3.40;3.10;;;17.00;36.70;;;;;;6208056;23;20386;-85
2021/05/03 15:21:18;;;;;;;4.27;3.20;;;17.00;37.10;;;;;;6149860;23;21445;-88
2021/05/03 15:23:40;;;;;;;3.50;3.10;;;17.50;36.40;;;;;;6145797;23;20404;-87
2021/05/03 15:26:32;;;;;;;5.73;3.30;;;17.60;36.00;;;;;;6129064;23;20392;-86
2021/05/03 15:29:22;;;;;;;4.07;3.20;;;17.10;36.50;;;;;;6107912;23;20532;-85
2021/05/03 15:35:01;;;;;;;3.47;2.90;;;17.10;37.10;;;;;;6131547;23;20646;-86
2021/05/03 15:37:39;;;;;;;3.03;2.73;;;17.20;36.80;;;;;;6120471;23;20491;-84
2021/05/03 15:40:30;;;;;;;3.70;3.40;;;17.10;37.10;;;;;;6145398;23;20392;-86
2021/05/03 15:43:17;;;;;;;3.47;3.10;;;17.10;37.20;;;;;;6143419;23;20398;-86
2021/05/03 15:45:57;;;;;;;3.17;2.63;;;17.20;37.40;;;;;;6185948;23;20406;-87
2021/05/03 15:48:35;;;;;;;3.03;2.73;;;17.40;37.00;;;;;;6204328;23;20461;-87
2021/05/03 15:51:26;;;;;;;3.10;2.90;;;17.10;36.70;;;;;;6232506;23;20401;-85
2021/05/03 15:53:58;;;;;;;2.47;2.27;;;16.80;37.00;;;;;;6238214;23;20402;-87
2021/05/03 15:56:48;;;;;;;3.27;3.07;;;16.60;37.30;;;;;;6238143;23;20464;-86
2021/05/03 15:59:26;;;;;;;3.13;2.93;;;16.50;37.80;;;;;;6239557;23;20433;-86
2021/05/03 16:05:26;;;;;;;2.80;2.43;;;16.30;38.50;;;;;;6238819;23;20425;-85
2021/05/03 16:13:38;;;;;;;2.63;2.43;;;16.80;37.40;;;;;;6203047;23;20436;-85
2021/05/03 16:16:48;;;;;;;3.03;2.63;;;16.60;37.90;;;;;;6201871;23;20496;-85
2021/05/03 16:19:32;;;;;;;2.50;2.30;;;16.50;38.00;;;;;;6194459;23;20559;-86
2021/05/03 16:22:46;;;;;;;;;;;;;;;;;;;;;
2021/05/03 16:25:42;;;;;;;4.40;2.83;;;16.70;37.60;;;;;;6208374;23;20413;-86
2021/05/03 16:28:26;;;;;;;3.20;2.93;;;16.50;38.00;;;;;;6220661;23;20441;-85
2021/05/03 16:31:13;;;;;;;3.27;2.97;;;16.40;38.40;;;;;;6225347;23;20421;-86
2021/05/03 16:34:04;;;;;;;3.67;3.37;;;16.60;38.90;;;;;;6204358;23;20420;-84
2021/05/03 16:36:46;;;;;;;3.03;2.80;;;16.40;39.40;;;;;;6225490;23;20448;-87
2021/05/03 16:39:16;;;;;;;3.53;3.23;;;16.70;39.40;;;;;;6229051;23;20416;-83
2021/05/03 16:42:08;;;;;;;3.40;3.10;;;16.90;39.10;;;;;;6207311;23;20409;-83
2021/05/03 16:44:49;;;;;;;3.50;3.10;;;16.50;39.40;;;;;;6204210;23;20412;-84
2021/05/03 16:47:44;;;;;;;4.60;2.90;;;16.20;40.30;;;;;;6222102;23;20413;-86
2021/05/03 16:50:50;;;;;;;;;;;;;;;;;;;;;
2021/05/03 16:53:59;;;;;;;2.90;2.70;;;16.00;40.90;;;;;;6228454;23;20393;-82
2021/05/03 16:57:10;;;;;;;4.13;3.83;;;16.30;40.60;;;;;;6204188;23;20441;-86
2021/05/03 16:59:53;;;;;;;4.47;3.50;;;16.10;40.70;;;;;;6227088;23;20437;-87
2021/05/03 17:02:33;;;;;;;4.63;4.23;;;16.00;41.20;;;;;;6201293;23;20413;-86
2021/05/03 17:05:45;;;;;;;4.10;3.70;;;16.40;41.00;;;;;;6223366;23;20398;-85
2021/05/03 17:08:51;;;;;;;3.27;3.07;;;16.50;40.30;;;;;;6208552;23;20413;-83
2021/05/03 17:15:30;;;;;;;;;;;;;;;;;;;;;
2021/05/03 17:19:08;;;;;;;3.70;3.30;;;16.40;40.20;;;;;;6222135;23;20422;-85
2021/05/03 17:21:58;;;;;;;3.90;3.60;;;16.40;39.80;;;;;;6216411;23;20416;-84
2021/05/03 17:24:38;;;;;;;4.10;3.80;;;16.10;40.30;;;;;;6217421;23;20420;-84
2021/05/03 17:27:31;;;;;;;;;;;;;;;;;;;;;
2021/05/03 17:36:26;;;;;;;4.93;4.53;;;16.40;40.00;;;;;;6178252;23;20459;-87
2021/05/03 17:39:32;;;;;;;4.27;3.97;;;16.40;40.30;;;;;;6195405;23;20433;-83
2021/05/03 17:42:12;;;;;;;4.30;3.60;;;16.30;40.50;;;;;;6218499;23;20408;-85
2021/05/03 17:45:32;;;;;;;4.67;4.20;;;16.20;40.50;;;;;;6217210;23;20455;-85
2021/05/03 17:48:06;;;;;;;5.10;4.60;;;16.10;41.60;;;;;;6225513;23;20425;-84
2021/05/03 17:51:10;;;;;;;;;;;;;;;;;;;;;
2021/05/03 17:53:53;;;;;;;4.10;3.70;;;16.10;41.00;;;;;;6229505;23;20485;-83
2021/05/03 17:56:43;;;;;;;4.00;3.70;;;16.10;41.20;;;;;;6229242;23;20468;-84
2021/05/03 18:03:18;;;;;;;4.73;4.23;;;15.90;41.70;;;;;;6216592;23;20412;-85
2021/05/03 18:06:42;;;;;;;5.17;3.70;;;15.80;42.00;;;;;;6228824;23;20488;-85
2021/05/03 18:09:39;;;;;;;3.80;3.50;;;15.70;42.30;;;;;;6227463;23;20436;-86
2021/05/03 18:12:21;;;;;;;4.37;3.97;;;15.70;42.20;;;;;;6202778;23;20451;-85
2021/05/03 18:18:14;;;;;;;4.30;3.90;;;15.50;42.60;;;;;;6214599;23;20428;-86
2021/05/03 18:21:01;;;;;;;3.80;3.50;;;15.50;43.00;;;;;;6194464;23;20416;-84
2021/05/03 18:23:38;;;;;;;5.63;4.07;;;15.60;42.90;;;;;;6193699;23;20440;-84
2021/05/03 18:26:47;;;;;;;4.67;4.20;;;15.50;43.10;;;;;;6200242;22;20427;-87
2021/05/03 18:29:20;;;;;;;4.83;4.37;;;15.70;43.10;;;;;;6234700;22;20428;-83
2021/05/03 18:32:05;;;;;;;4.70;4.30;;;15.60;43.30;;;;;;6194116;23;20444;-86
2021/05/03 18:34:32;;;;;;;4.83;4.43;;;15.70;43.30;;;;;;6223809;23;20417;-85
2021/05/03 18:37:06;;;;;;;4.90;4.40;;;15.70;43.30;;;;;;6224218;23;20445;-85
2021/05/03 18:39:50;;;;;;;4.27;3.87;;;15.60;43.40;;;;;;6103864;23;20518;-85
2021/05/03 18:42:28;;;;;;;4.27;3.93;;;15.50;43.80;;;;;;6127196;23;20423;-85
2021/05/03 18:45:22;;;;;;;4.57;4.17;;;15.60;43.80;;;;;;6127212;23;20420;-86
2021/05/03 18:47:58;;;;;;;4.40;4.10;;;15.60;43.50;;;;;;6124118;23;20420;-85
2021/05/03 18:50:53;;;;;;;3.97;3.67;;;15.60;43.60;;;;;;6111726;23;20418;-85
2021/05/03 18:53:20;;;;;;;4.20;3.80;;;15.60;43.60;;;;;;6106488;23;20467;-82
2021/05/03 18:56:28;;;;;;;4.30;3.80;;;15.60;43.70;;;;;;6116243;23;20514;-87
2021/05/03 18:59:11;;;;;;;4.33;4.00;;;15.40;43.70;;;;;;6144641;23;20435;-86
2021/05/03 19:01:41;;;;;;;4.47;3.60;;;15.40;43.80;;;;;;6146222;23;20419;-86
2021/05/03 19:04:14;;;;;;;4.97;4.00;;;15.40;43.90;;;;;;6145017;23;20442;-84
2021/05/03 19:07:09;;;;;;;6.53;4.03;;;15.30;44.00;;;;;;6147224;23;20383;-85
2021/05/03 19:09:47;;;;;;;4.63;4.20;;;15.20;44.10;;;;;;6157339;23;20450;-85
2021/05/03 19:12:16;;;;;;;4.00;3.60;;;15.10;44.40;;;;;;6235331;22;20427;-84
2021/05/03 19:14:53;;;;;;;4.20;3.80;;;15.10;44.70;;;;;;6229635;23;20420;-85
2021/05/03 19:17:50;;;;;;;5.27;4.70;;;15.20;44.50;;;;;;6201956;23;21296;-85
2021/05/03 19:20:31;;;;;;;4.50;4.10;;;15.30;44.30;;;;;;6205428;23;20595;-85
2021/05/03 19:22:58;;;;;;;4.17;3.80;;;15.30;44.40;;;;;;6229404;23;20409;-84